Time;durP1;ratioP1;P1;durP2;ratioP2;P2;SDS_P1;SDS_P2;PMS_P1;PMS_P2;Temp;Humidity;BMP_temperature;BMP_pressure;BME280_temperature;BME280_humidity;BME280_pressure;Samples;Min_cycle;Max_cycle;Signal;HPM_P1;HPM_P2
2024/01/31 00:01:52;;;;;;;1.90;1.50;;;16.00;90.00;;;;;;5038300;28;20292;-6
2024/01/31 00:07:38;;;;;;;1.87;1.50;;;15.90;90.00;;;;;;5037562;28;20222;-7
2024/01/31 00:10:24;;;;;;;1.80;1.53;;;15.90;90.00;;;;;;5031610;28;20635;-6
2024/01/31 00:13:45;;;;;;;1.70;1.53;;;15.90;90.00;;;;;;5037048;28;20177;-7
2024/01/31 00:16:25;;;;;;;2.83;1.57;;;15.90;90.00;;;;;;4977768;28;20751;-7
2024/01/31 00:19:24;;;;;;;3.47;1.70;;;15.90;90.00;;;;;;4977877;28;20201;-7
2024/01/31 00:22:45;;;;;;;1.87;1.60;;;15.90;90.00;;;;;;4978729;28;20186;-7
2024/01/31 00:25:12;;;;;;;1.50;1.40;;;15.90;90.00;;;;;;4977801;28;20163;-8
2024/01/31 00:27:38;;;;;;;1.90;1.47;;;15.90;90.10;;;;;;5077982;28;20183;-7
2024/01/31 00:30:06;;;;;;;1.60;1.40;;;15.90;90.00;;;;;;5098695;28;20195;-6
2024/01/31 00:32:32;;;;;;;1.70;1.60;;;15.90;90.00;;;;;;5098484;28;20278;-7
2024/01/31 00:34:58;;;;;;;2.03;1.40;;;15.90;90.00;;;;;;5098434;28;20273;-7
2024/01/31 00:37:23;;;;;;;2.43;1.30;;;15.90;90.00;;;;;;5098505;28;20162;-7
2024/01/31 00:39:59;;;;;;;2.80;1.47;;;15.90;90.10;;;;;;5098160;28;20181;-7
2024/01/31 00:42:25;;;;;;;1.90;1.37;;;15.90;90.10;;;;;;5098171;28;20549;-7
2024/01/31 00:44:50;;;;;;;2.57;1.57;;;15.90;90.10;;;;;;5097339;28;20185;-7
2024/01/31 00:47:16;;;;;;;1.93;1.73;;;15.90;90.00;;;;;;5098239;28;20171;-7
2024/01/31 00:49:43;;;;;;;1.73;1.50;;;15.90;90.00;;;;;;5098378;28;20471;-7
2024/01/31 00:52:09;;;;;;;2.00;1.37;;;15.80;90.00;;;;;;5097752;28;20175;-7
2024/01/31 00:54:36;;;;;;;1.93;1.43;;;15.90;90.00;;;;;;5097301;28;20585;-8
2024/01/31 00:57:02;;;;;;;2.70;1.60;;;15.80;90.00;;;;;;5097890;28;20545;-7
2024/01/31 00:59:31;;;;;;;1.63;1.50;;;15.80;90.00;;;;;;5097554;28;20190;-7
2024/01/31 01:01:56;;;;;;;1.60;1.50;;;15.80;90.00;;;;;;5098019;28;20179;-7
2024/01/31 01:04:22;;;;;;;1.70;1.50;;;15.80;90.00;;;;;;5096761;28;20247;-8
2024/01/31 01:06:48;;;;;;;2.70;1.33;;;15.80;90.00;;;;;;5097421;28;20494;-8
2024/01/31 01:09:14;;;;;;;1.60;1.40;;;15.80;90.00;;;;;;5097820;28;20195;-7
2024/01/31 01:11:39;;;;;;;1.43;1.33;;;15.80;90.30;;;;;;5097922;28;20228;-7
2024/01/31 01:14:06;;;;;;;1.80;1.23;;;15.80;90.10;;;;;;5097864;28;20222;-6
2024/01/31 01:16:42;;;;;;;2.57;1.50;;;15.80;90.30;;;;;;5096011;28;20201;-8
2024/01/31 01:19:08;;;;;;;1.77;1.33;;;15.80;90.10;;;;;;5096942;28;20180;-9
2024/01/31 01:21:33;;;;;;;2.10;1.50;;;15.80;90.10;;;;;;5097410;28;20158;-7
2024/01/31 01:23:59;;;;;;;1.43;1.33;;;15.80;90.10;;;;;;5096436;28;20175;-7
2024/01/31 01:26:31;;;;;;;1.50;1.40;;;15.80;90.10;;;;;;5097411;28;20196;-7
2024/01/31 01:28:57;;;;;;;1.50;1.37;;;15.80;90.10;;;;;;5096914;28;20170;-9
2024/01/31 01:31:22;;;;;;;1.60;1.47;;;15.80;90.20;;;;;;5096923;28;20213;-6
2024/01/31 01:33:48;;;;;;;1.90;1.47;;;15.80;90.20;;;;;;5097388;28;20477;-7
2024/01/31 01:36:14;;;;;;;1.90;1.50;;;15.80;90.20;;;;;;5091628;22;20358;-82
2024/01/31 01:38:43;;;;;;;2.23;1.57;;;15.80;90.20;;;;;;5074082;28;20305;-82
2024/01/31 01:41:09;;;;;;;1.30;1.20;;;15.80;90.20;;;;;;5074597;28;20564;-82
2024/01/31 01:43:36;;;;;;;2.70;1.50;;;15.80;90.20;;;;;;5072932;28;20182;-83
2024/01/31 01:46:10;;;;;;;1.63;1.50;;;15.80;90.20;;;;;;5072533;28;20176;-83
2024/01/31 01:48:36;;;;;;;4.60;1.77;;;15.80;90.20;;;;;;5073805;28;20568;-83
2024/01/31 01:51:06;;;;;;;2.00;1.50;;;15.80;90.20;;;;;;5075625;28;20626;-83
2024/01/31 01:53:44;;;;;;;1.50;1.30;;;15.80;90.20;;;;;;5074428;28;20581;-83
2024/01/31 01:56:11;;;;;;;2.30;1.40;;;15.80;90.20;;;;;;5074093;28;20171;-82
2024/01/31 01:58:37;;;;;;;1.57;1.40;;;15.80;90.20;;;;;;5073567;28;20179;-82
2024/01/31 02:01:13;;;;;;;1.30;1.20;;;15.80;90.20;;;;;;5072508;28;20183;-82
2024/01/31 02:03:41;;;;;;;1.40;1.30;;;15.80;90.20;;;;;;5074439;28;20178;-82
2024/01/31 02:06:09;;;;;;;1.97;1.40;;;15.70;90.20;;;;;;5072581;28;20735;-82
2024/01/31 02:08:36;;;;;;;1.50;1.40;;;15.70;90.20;;;;;;5073998;28;20561;-83
2024/01/31 02:11:06;;;;;;;1.40;1.30;;;15.70;90.20;;;;;;5073655;28;20533;-83
2024/01/31 02:13:32;;;;;;;2.30;1.30;;;15.70;90.20;;;;;;5074970;28;20195;-83
2024/01/31 02:18:27;;;;;;;1.40;1.20;;;15.70;90.20;;;;;;5073428;28;20223;-11
2024/01/31 02:20:53;;;;;;;1.67;1.20;;;15.70;90.20;;;;;;5058693;28;20183;-11
2024/01/31 02:23:22;;;;;;;1.30;1.20;;;15.80;90.20;;;;;;5076836;28;20196;-11
2024/01/31 02:25:48;;;;;;;1.53;1.30;;;15.70;90.20;;;;;;5076406;28;20171;-8
2024/01/31 02:28:14;;;;;;;2.30;1.27;;;15.70;90.20;;;;;;5076921;28;20228;-8
2024/01/31 02:30:43;;;;;;;1.57;1.47;;;15.70;90.20;;;;;;5076292;28;20215;-8
2024/01/31 02:33:09;;;;;;;1.80;1.40;;;15.70;90.20;;;;;;5077139;28;20246;-8
2024/01/31 02:35:35;;;;;;;1.47;1.37;;;15.70;90.20;;;;;;5077027;28;20528;-8
2024/01/31 02:38:10;;;;;;;1.50;1.30;;;15.70;90.20;;;;;;5080743;28;20790;-8
2024/01/31 02:40:36;;;;;;;1.30;1.20;;;15.70;90.20;;;;;;5063512;28;20255;-8
2024/01/31 02:43:01;;;;;;;1.63;1.40;;;15.70;90.20;;;;;;5081051;28;20489;-8
2024/01/31 02:45:30;;;;;;;2.07;1.40;;;15.70;90.20;;;;;;5080795;28;20234;-8
2024/01/31 02:47:56;;;;;;;1.23;1.13;;;15.70;90.20;;;;;;5081783;28;20213;-8
2024/01/31 02:50:44;;;;;;;2.47;1.60;;;15.70;90.20;;;;;;5080311;28;20239;-8
2024/01/31 02:53:09;;;;;;;1.83;1.40;;;15.70;90.20;;;;;;5081062;28;20503;-8
2024/01/31 02:55:38;;;;;;;1.97;1.30;;;15.70;90.20;;;;;;5080664;28;20536;-8
2024/01/31 02:58:04;;;;;;;1.40;1.30;;;15.70;90.20;;;;;;5080351;28;20213;-8
2024/01/31 03:00:30;;;;;;;1.30;1.20;;;15.70;90.20;;;;;;5079567;28;20182;-8
2024/01/31 03:02:56;;;;;;;1.73;1.30;;;15.70;90.20;;;;;;5079259;28;20195;-8
2024/01/31 03:05:22;;;;;;;1.90;1.20;;;15.70;90.20;;;;;;5080112;28;20171;-8
2024/01/31 03:07:47;;;;;;;1.60;1.50;;;15.70;90.20;;;;;;5080373;28;20614;-8
2024/01/31 03:10:20;;;;;;;1.20;1.10;;;15.70;90.20;;;;;;5062250;28;20199;-8
2024/01/31 03:12:48;;;;;;;1.80;1.40;;;15.70;90.20;;;;;;5080775;28;20299;-8
2024/01/31 03:15:17;;;;;;;1.60;1.30;;;15.70;90.20;;;;;;5080737;28;20681;-8
2024/01/31 03:17:46;;;;;;;1.57;1.47;;;15.70;90.20;;;;;;5063200;28;20193;-8
2024/01/31 03:20:13;;;;;;;1.40;1.30;;;15.70;90.20;;;;;;5080520;28;20159;-8
2024/01/31 03:22:39;;;;;;;1.67;1.37;;;15.60;90.20;;;;;;5062545;28;20198;-9
2024/01/31 03:25:07;;;;;;;1.30;1.20;;;15.60;90.10;;;;;;5062693;28;20174;-10
2024/01/31 03:27:34;;;;;;;1.60;1.20;;;15.60;90.10;;;;;;5062979;28;20175;-10
2024/01/31 03:30:06;;;;;;;1.30;1.20;;;15.60;90.10;;;;;;5062217;28;20199;-10
2024/01/31 03:32:35;;;;;;;1.63;1.33;;;15.60;90.10;;;;;;5080353;28;20167;-10
2024/01/31 03:35:01;;;;;;;1.93;1.50;;;15.60;90.10;;;;;;5062492;28;20243;-10
2024/01/31 03:37:29;;;;;;;1.47;1.30;;;15.60;90.10;;;;;;5062089;28;20179;-10
2024/01/31 03:39:55;;;;;;;1.20;1.10;;;15.60;90.10;;;;;;5079704;28;20199;-10
2024/01/31 03:42:21;;;;;;;1.40;1.30;;;15.60;90.10;;;;;;5062508;28;20270;-10
2024/01/31 03:44:46;;;;;;;1.60;1.23;;;15.60;90.10;;;;;;5061798;28;20787;-10
2024/01/31 03:47:12;;;;;;;1.53;1.30;;;15.60;90.20;;;;;;5079659;28;20167;-10
2024/01/31 03:49:49;;;;;;;1.97;1.53;;;15.60;90.20;;;;;;5062850;28;20276;-10
2024/01/31 03:52:15;;;;;;;1.53;1.40;;;15.60;90.20;;;;;;5080422;28;20741;-10
2024/01/31 03:54:40;;;;;;;1.30;1.20;;;15.60;90.10;;;;;;5079634;28;20262;-10
2024/01/31 03:57:06;;;;;;;1.70;1.47;;;15.60;90.10;;;;;;5079848;28;20562;-10
2024/01/31 03:59:51;;;;;;;2.57;1.27;;;15.60;90.10;;;;;;5080089;28;20187;-10
2024/01/31 04:02:17;;;;;;;1.40;1.30;;;15.60;90.10;;;;;;5079691;28;20534;-10
2024/01/31 04:04:43;;;;;;;1.50;1.20;;;15.60;90.10;;;;;;5079573;28;20222;-10
2024/01/31 04:07:08;;;;;;;1.43;1.30;;;15.60;90.10;;;;;;5079563;28;20637;-10
2024/01/31 04:09:34;;;;;;;1.33;1.23;;;15.60;90.10;;;;;;5062121;28;20214;-10
2024/01/31 04:12:00;;;;;;;1.20;1.10;;;15.60;90.40;;;;;;5079321;28;20175;-10
2024/01/31 04:14:29;;;;;;;1.40;1.30;;;15.60;90.20;;;;;;5062523;28;20168;-10
2024/01/31 04:17:03;;;;;;;1.60;1.20;;;15.60;90.20;;;;;;5080008;28;20312;-10
2024/01/31 04:19:28;;;;;;;1.53;1.30;;;15.60;90.20;;;;;;5062408;28;20178;-10
2024/01/31 04:21:54;;;;;;;1.43;1.20;;;15.60;90.20;;;;;;5061447;28;20571;-10
2024/01/31 04:24:23;;;;;;;1.40;1.20;;;15.60;90.20;;;;;;5079190;28;20175;-10
2024/01/31 04:26:51;;;;;;;1.67;1.20;;;15.50;90.10;;;;;;5045619;28;20206;-10
2024/01/31 04:29:17;;;;;;;1.53;1.20;;;15.50;90.10;;;;;;5061842;28;20607;-10
2024/01/31 04:31:49;;;;;;;1.47;1.27;;;15.60;90.20;;;;;;5061371;28;20714;-10
2024/01/31 04:34:15;;;;;;;2.17;1.40;;;15.60;90.20;;;;;;5078973;28;20175;-10
2024/01/31 04:36:43;;;;;;;1.37;1.27;;;15.50;90.10;;;;;;5061333;28;20610;-10
2024/01/31 04:39:10;;;;;;;1.27;1.10;;;15.50;90.10;;;;;;5061436;28;20587;-10
2024/01/31 04:41:36;;;;;;;2.10;1.27;;;15.50;90.10;;;;;;5061863;28;20174;-10
2024/01/31 04:44:02;;;;;;;1.50;1.37;;;15.50;90.20;;;;;;5078089;28;20178;-10
2024/01/31 04:46:28;;;;;;;1.20;1.10;;;15.50;90.10;;;;;;5079149;28;20660;-10
2024/01/31 04:48:54;;;;;;;1.30;1.20;;;15.50;90.10;;;;;;5061556;28;20580;-10
2024/01/31 04:51:20;;;;;;;1.37;1.20;;;15.50;90.20;;;;;;5078630;28;20230;-10
2024/01/31 04:53:48;;;;;;;2.10;1.40;;;15.50;90.20;;;;;;5060429;28;20175;-10
2024/01/31 04:56:18;;;;;;;1.23;1.13;;;15.50;90.10;;;;;;5060331;28;20186;-10
2024/01/31 04:58:43;;;;;;;1.30;1.10;;;15.50;90.10;;;;;;5060274;28;20174;-10
2024/01/31 05:01:15;;;;;;;1.43;1.33;;;15.50;90.10;;;;;;5078301;28;20415;-10
2024/01/31 05:03:44;;;;;;;1.63;1.20;;;15.50;90.10;;;;;;5060725;28;20176;-10
2024/01/31 05:06:12;;;;;;;1.10;1.00;;;15.50;90.20;;;;;;5061427;28;20179;-10
2024/01/31 05:08:38;;;;;;;1.50;1.10;;;15.50;90.10;;;;;;5078309;28;20239;-9
2024/01/31 05:11:04;;;;;;;1.30;1.20;;;15.50;90.10;;;;;;5061114;28;20207;-9
2024/01/31 05:13:29;;;;;;;1.80;1.20;;;15.50;90.10;;;;;;5060252;28;20168;-9
2024/01/31 05:15:55;;;;;;;1.60;1.20;;;15.50;90.20;;;;;;5078118;28;20174;-9
2024/01/31 05:18:22;;;;;;;1.47;1.30;;;15.50;90.10;;;;;;5060314;28;20187;-9
2024/01/31 05:20:51;;;;;;;1.57;1.27;;;15.50;90.10;;;;;;5077569;28;20174;-9
2024/01/31 05:23:16;;;;;;;1.80;1.20;;;15.50;90.20;;;;;;5077563;28;20269;-9
2024/01/31 05:25:42;;;;;;;1.63;1.30;;;15.50;90.20;;;;;;5061033;28;20224;-9
2024/01/31 05:28:11;;;;;;;1.73;1.20;;;15.40;90.10;;;;;;5059588;28;20203;-9
2024/01/31 05:30:38;;;;;;;70.73;66.37;;;15.50;90.20;;;;;;5060197;28;20267;-9
2024/01/31 05:33:04;;;;;;;1.10;1.00;;;15.50;90.20;;;;;;5077517;28;20266;-9
2024/01/31 05:35:35;;;;;;;2.23;1.30;;;15.40;90.10;;;;;;5060761;28;20264;-9
2024/01/31 05:38:11;;;;;;;1.30;1.20;;;15.50;90.10;;;;;;5059710;28;20179;-9
2024/01/31 05:40:38;;;;;;;2.43;1.40;;;15.50;90.20;;;;;;5059739;28;20855;-9
2024/01/31 05:43:04;;;;;;;3.23;1.40;;;15.50;90.20;;;;;;5059078;28;20194;-9
2024/01/31 05:45:29;;;;;;;1.53;1.33;;;15.50;90.20;;;;;;5076674;28;20178;-9
2024/01/31 05:48:02;;;;;;;2.93;1.40;;;15.50;90.30;;;;;;5076515;28;20575;-9
2024/01/31 05:50:30;;;;;;;2.70;1.60;;;15.50;90.30;;;;;;5076156;28;20241;-9
2024/01/31 05:52:56;;;;;;;1.77;1.20;;;15.40;90.30;;;;;;5077110;28;20182;-9
2024/01/31 05:55:24;;;;;;;1.60;1.30;;;15.40;90.20;;;;;;5059037;28;20168;-9
2024/01/31 05:57:54;;;;;;;2.10;1.47;;;15.40;90.30;;;;;;5059683;28;20183;-9
2024/01/31 06:00:20;;;;;;;2.27;1.50;;;15.40;90.30;;;;;;5076969;28;20181;-9
2024/01/31 06:02:46;;;;;;;2.10;1.37;;;15.50;90.30;;;;;;5058844;28;20501;-9
2024/01/31 06:05:14;;;;;;;2.80;2.10;;;15.40;90.30;;;;;;5059518;28;20189;-9
2024/01/31 06:07:45;;;;;;;3.00;1.20;;;15.40;90.40;;;;;;5077629;28;20163;-9
2024/01/31 06:10:11;;;;;;;2.17;1.50;;;15.40;90.40;;;;;;5059036;28;20207;-9
2024/01/31 06:12:37;;;;;;;3.67;1.50;;;15.40;90.30;;;;;;5079977;28;20169;-9
2024/01/31 06:15:04;;;;;;;2.00;1.37;;;15.50;90.40;;;;;;5080621;28;20174;-9
2024/01/31 06:17:58;;;;;;;1.93;1.40;;;15.40;90.40;;;;;;5080090;28;20190;-9
2024/01/31 06:20:23;;;;;;;2.93;1.40;;;15.40;90.40;;;;;;5080589;28;20178;-9
2024/01/31 06:22:49;;;;;;;2.00;1.57;;;15.40;90.40;;;;;;5080703;28;20324;-9
2024/01/31 06:25:15;;;;;;;2.13;1.70;;;15.40;90.40;;;;;;5064012;28;20176;-9
2024/01/31 06:27:42;;;;;;;2.03;1.53;;;15.40;90.50;;;;;;5080670;28;20573;-9
2024/01/31 06:30:08;;;;;;;4.10;1.53;;;15.40;90.50;;;;;;5080118;28;20195;-9
2024/01/31 06:32:40;;;;;;;2.40;1.30;;;15.40;90.50;;;;;;5079593;28;20179;-10
2024/01/31 06:35:06;;;;;;;2.03;1.40;;;15.40;90.50;;;;;;5062974;28;20162;-10
2024/01/31 06:37:32;;;;;;;1.87;1.57;;;15.40;90.60;;;;;;5062834;28;20178;-10
2024/01/31 06:40:01;;;;;;;2.40;1.93;;;15.40;90.60;;;;;;5059027;28;20559;-10
2024/01/31 06:42:26;;;;;;;2.87;1.53;;;15.40;90.60;;;;;;5079046;28;20560;-10
2024/01/31 06:44:52;;;;;;;2.90;1.50;;;15.40;90.60;;;;;;5079850;28;20179;-10
2024/01/31 06:47:19;;;;;;;1.90;1.50;;;15.40;90.60;;;;;;5062959;28;20182;-10
2024/01/31 06:49:45;;;;;;;3.73;1.93;;;15.40;90.80;;;;;;5061830;28;20698;-10
2024/01/31 06:52:13;;;;;;;3.03;1.97;;;15.40;90.90;;;;;;5079619;28;20199;-10
2024/01/31 06:54:39;;;;;;;4.17;2.97;;;15.40;91.00;;;;;;5079614;28;20562;-10
2024/01/31 06:57:09;;;;;;;2.70;1.40;;;15.40;91.10;;;;;;5061648;28;20179;-10
2024/01/31 06:59:34;;;;;;;2.73;1.80;;;15.40;91.20;;;;;;5079491;28;20171;-10
2024/01/31 07:02:00;;;;;;;2.63;1.67;;;15.40;91.20;;;;;;5079139;28;20181;-10
2024/01/31 07:04:29;;;;;;;2.43;1.63;;;15.40;91.40;;;;;;5078930;28;20185;-10
2024/01/31 07:06:57;;;;;;;2.30;1.60;;;15.40;91.40;;;;;;5060947;28;20175;-10
2024/01/31 07:09:28;;;;;;;2.93;1.80;;;15.40;91.40;;;;;;5060047;28;20183;-10
2024/01/31 07:11:54;;;;;;;2.23;1.57;;;15.40;91.50;;;;;;5060553;28;20183;-10
2024/01/31 07:14:28;;;;;;;3.53;2.07;;;15.40;91.50;;;;;;5077723;28;20220;-10
2024/01/31 07:16:57;;;;;;;5.00;1.90;;;15.40;91.50;;;;;;5060248;28;20205;-10
2024/01/31 07:19:25;;;;;;;2.30;1.77;;;15.40;91.50;;;;;;5077345;28;20221;-9
2024/01/31 07:21:54;;;;;;;2.93;1.80;;;15.40;91.60;;;;;;5077854;28;20159;-9
2024/01/31 07:24:32;;;;;;;2.97;2.10;;;15.40;91.60;;;;;;5060919;28;20172;-9
2024/01/31 07:26:58;;;;;;;2.33;1.70;;;15.40;91.60;;;;;;5061065;28;20171;-9
2024/01/31 07:29:23;;;;;;;2.20;1.70;;;15.40;91.60;;;;;;5078443;28;20182;-9
2024/01/31 07:31:52;;;;;;;3.33;1.80;;;15.40;91.70;;;;;;5078601;28;20254;-9
2024/01/31 07:34:19;;;;;;;2.27;1.80;;;15.40;91.80;;;;;;5078598;28;20268;-9
2024/01/31 07:36:44;;;;;;;24.70;22.23;;;15.40;91.90;;;;;;5060361;28;20171;-9
2024/01/31 07:39:10;;;;;;;5.43;4.23;;;15.40;91.90;;;;;;5078793;28;20182;-9
2024/01/31 07:41:36;;;;;;;4.60;2.20;;;15.40;92.00;;;;;;5060299;28;20740;-9
2024/01/31 07:44:03;;;;;;;4.80;2.07;;;15.40;91.90;;;;;;5078134;28;20174;-9
2024/01/31 07:46:29;;;;;;;3.27;2.03;;;15.40;91.90;;;;;;5078123;28;20176;-9
2024/01/31 07:48:55;;;;;;;3.53;1.83;;;15.50;91.90;;;;;;5078135;28;20163;-9
2024/01/31 07:51:20;;;;;;;3.30;1.83;;;15.50;91.90;;;;;;5076991;28;20207;-9
2024/01/31 07:53:46;;;;;;;3.93;1.80;;;15.40;91.80;;;;;;5073895;28;20162;-9
2024/01/31 07:56:14;;;;;;;3.17;2.67;;;15.50;91.80;;;;;;5074538;28;20168;-9
2024/01/31 07:58:40;;;;;;;2.63;1.93;;;15.40;91.70;;;;;;5077445;28;20186;-9
2024/01/31 08:01:06;;;;;;;2.77;1.70;;;15.50;91.60;;;;;;5076886;28;20187;-9
2024/01/31 08:03:38;;;;;;;59.67;55.10;;;15.50;91.60;;;;;;5059391;28;20190;-9
2024/01/31 08:06:05;;;;;;;126.97;119.93;;;15.40;91.50;;;;;;5077129;28;20700;-9
2024/01/31 08:08:31;;;;;;;2.77;2.00;;;15.50;91.50;;;;;;5060636;28;20461;-9
2024/01/31 08:11:01;;;;;;;3.60;2.33;;;15.50;91.40;;;;;;5077917;28;20352;-9
2024/01/31 08:13:27;;;;;;;2.43;1.87;;;15.50;91.30;;;;;;5060835;28;20179;-9
2024/01/31 08:15:52;;;;;;;2.90;1.97;;;15.50;91.30;;;;;;5059552;28;20185;-9
2024/01/31 08:18:18;;;;;;;3.27;1.90;;;15.50;91.20;;;;;;5077577;28;20480;-9
2024/01/31 08:20:44;;;;;;;3.93;1.73;;;15.50;91.20;;;;;;5076315;28;20156;-9
2024/01/31 08:23:13;;;;;;;3.67;1.70;;;15.50;91.10;;;;;;5059519;28;20606;-9
2024/01/31 08:25:42;;;;;;;2.60;1.80;;;15.50;91.10;;;;;;5077181;28;20159;-9
2024/01/31 08:28:07;;;;;;;5.33;2.27;;;15.50;91.20;;;;;;5078011;28;20281;-9
2024/01/31 08:30:33;;;;;;;3.70;2.17;;;15.50;91.60;;;;;;5059370;28;20309;-9
2024/01/31 08:32:59;;;;;;;4.10;2.13;;;15.50;92.40;;;;;;5076725;28;20200;-10
2024/01/31 08:35:25;;;;;;;5.33;1.93;;;15.50;92.80;;;;;;5059162;28;20622;-9
2024/01/31 08:37:51;;;;;;;12.90;2.80;;;15.50;93.10;;;;;;5077040;28;20663;-9
2024/01/31 08:40:17;;;;;;;10.97;2.20;;;15.50;93.10;;;;;;5059635;28;20178;-9
2024/01/31 08:42:45;;;;;;;5.87;2.40;;;15.50;93.00;;;;;;5059909;28;20447;-9
2024/01/31 08:45:14;;;;;;;9.37;2.80;;;15.50;92.90;;;;;;5076259;28;20163;-9
2024/01/31 08:47:44;;;;;;;8.17;2.83;;;15.50;92.80;;;;;;5059452;28;20183;-10
2024/01/31 08:50:10;;;;;;;9.30;2.50;;;15.60;92.80;;;;;;5059897;28;20195;-10
2024/01/31 08:52:36;;;;;;;10.90;3.83;;;15.50;92.60;;;;;;5049403;28;20237;-10
2024/01/31 08:55:05;;;;;;;9.70;3.03;;;15.50;92.50;;;;;;5055750;28;20270;-10
2024/01/31 08:57:31;;;;;;;10.60;2.30;;;15.60;92.40;;;;;;5068728;28;20799;-10
2024/01/31 09:00:01;;;;;;;6.47;2.40;;;15.60;92.30;;;;;;5058535;28;20220;-10
2024/01/31 09:02:28;;;;;;;8.13;2.10;;;15.60;92.20;;;;;;5059534;28;20168;-10
2024/01/31 09:04:53;;;;;;;6.40;2.37;;;15.60;92.10;;;;;;5071370;28;20183;-10
2024/01/31 09:07:19;;;;;;;25.80;23.37;;;15.60;92.00;;;;;;5075004;28;20182;-10
2024/01/31 09:09:48;;;;;;;9.50;8.70;;;15.60;92.00;;;;;;5075645;28;20295;-10
2024/01/31 09:12:14;;;;;;;68.97;65.10;;;15.60;91.90;;;;;;5075885;28;20179;-10
2024/01/31 09:14:42;;;;;;;4.83;3.07;;;15.60;91.80;;;;;;5058642;28;20182;-10
2024/01/31 09:17:11;;;;;;;8.70;2.67;;;15.60;91.80;;;;;;5076023;28;20182;-10
2024/01/31 09:19:36;;;;;;;7.20;2.60;;;15.60;91.60;;;;;;5059777;28;20228;-10
2024/01/31 09:22:02;;;;;;;5.97;2.20;;;15.60;91.60;;;;;;5059480;28;20182;-10
2024/01/31 09:24:28;;;;;;;9.20;2.20;;;15.60;91.50;;;;;;5059964;28;20651;-10
2024/01/31 09:26:53;;;;;;;3.87;2.10;;;15.60;91.50;;;;;;5058764;28;20178;-10
2024/01/31 09:29:19;;;;;;;3.80;2.20;;;15.60;91.50;;;;;;5076723;28;20159;-10
2024/01/31 09:31:47;;;;;;;4.30;2.30;;;15.60;91.40;;;;;;5075722;28;20188;-10
2024/01/31 09:34:12;;;;;;;3.13;2.10;;;15.60;91.40;;;;;;5076320;28;20273;-10
2024/01/31 09:36:38;;;;;;;2.93;1.87;;;15.60;91.40;;;;;;5076814;28;20259;-10
2024/01/31 09:39:05;;;;;;;4.30;2.50;;;15.60;91.30;;;;;;5076378;28;20155;-10
2024/01/31 09:41:34;;;;;;;3.20;2.00;;;15.60;91.20;;;;;;5076729;28;20171;-10
2024/01/31 09:43:59;;;;;;;3.17;1.90;;;15.60;91.20;;;;;;5059367;28;20175;-10
2024/01/31 09:46:26;;;;;;;3.83;1.93;;;15.60;91.10;;;;;;5059549;28;20175;-10
2024/01/31 09:48:53;;;;;;;4.80;2.17;;;15.60;91.10;;;;;;5076800;28;20240;-10
2024/01/31 09:51:23;;;;;;;2.60;1.80;;;15.60;91.10;;;;;;5057507;28;20206;-10
2024/01/31 09:53:53;;;;;;;2.97;1.80;;;15.60;91.10;;;;;;5059081;28;20227;-10
2024/01/31 09:56:22;;;;;;;3.20;1.97;;;15.60;91.10;;;;;;5058498;28;20269;-10
2024/01/31 09:58:48;;;;;;;3.60;1.87;;;15.60;91.10;;;;;;5059358;28;20171;-10
2024/01/31 10:01:20;;;;;;;3.53;1.90;;;15.60;91.10;;;;;;5074859;28;20171;-10
2024/01/31 10:03:46;;;;;;;4.40;1.60;;;15.60;91.10;;;;;;5075862;28;20217;-10
2024/01/31 10:06:12;;;;;;;4.33;2.10;;;15.60;91.10;;;;;;5057812;28;20476;-10
2024/01/31 10:08:38;;;;;;;3.30;2.13;;;15.60;91.10;;;;;;5074272;28;20226;-10
2024/01/31 10:11:07;;;;;;;2.90;1.70;;;15.60;91.10;;;;;;5057629;28;20287;-10
2024/01/31 10:13:35;;;;;;;3.73;2.00;;;15.60;91.10;;;;;;5057345;28;20175;-10
2024/01/31 10:16:13;;;;;;;4.00;2.07;;;15.60;91.10;;;;;;5074635;28;20250;-10
2024/01/31 10:18:42;;;;;;;59.40;56.47;;;15.60;91.10;;;;;;5058723;28;20420;-10
2024/01/31 10:21:09;;;;;;;2.23;1.60;;;15.60;91.10;;;;;;5058625;28;20189;-10
2024/01/31 10:23:35;;;;;;;2.90;1.73;;;15.60;91.10;;;;;;5058486;28;20250;-10
2024/01/31 10:26:07;;;;;;;4.87;1.90;;;15.60;91.10;;;;;;5058711;28;20309;-10
2024/01/31 10:28:36;;;;;;;2.87;1.70;;;15.60;91.10;;;;;;5058112;28;20175;-10
2024/01/31 10:31:02;;;;;;;3.43;1.63;;;15.60;91.10;;;;;;5074997;28;20289;-10
2024/01/31 10:33:31;;;;;;;3.47;1.50;;;15.60;91.10;;;;;;5075177;28;20148;-10
2024/01/31 10:35:58;;;;;;;2.60;1.70;;;15.60;91.00;;;;;;5057954;28;20281;-10
2024/01/31 10:38:24;;;;;;;2.53;1.90;;;15.60;91.00;;;;;;5074870;28;20175;-10
2024/01/31 10:40:51;;;;;;;1.80;1.60;;;15.60;91.00;;;;;;5056886;28;20279;-10
2024/01/31 10:43:21;;;;;;;2.00;1.60;;;15.60;91.00;;;;;;5074696;28;20244;-10
2024/01/31 10:45:47;;;;;;;2.40;1.60;;;15.60;91.00;;;;;;5058195;28;20193;-10
2024/01/31 10:48:15;;;;;;;2.77;1.77;;;15.60;91.00;;;;;;5075568;28;20167;-10
2024/01/31 10:50:42;;;;;;;2.30;1.57;;;15.70;91.00;;;;;;5057812;28;20210;-10
2024/01/31 10:53:10;;;;;;;2.60;1.40;;;15.60;90.90;;;;;;5075093;28;20178;-10
2024/01/31 10:55:38;;;;;;;2.50;1.77;;;15.60;90.90;;;;;;5058049;28;20167;-10
2024/01/31 10:58:09;;;;;;;3.40;1.50;;;15.60;90.90;;;;;;5077492;28;20360;-10
2024/01/31 11:00:35;;;;;;;1.87;1.40;;;15.70;91.00;;;;;;5078309;28;20167;-10
2024/01/31 11:03:03;;;;;;;2.17;1.70;;;15.60;90.90;;;;;;5078418;28;20281;-10
2024/01/31 11:05:30;;;;;;;2.17;1.70;;;15.60;90.90;;;;;;5078995;28;20152;-10
2024/01/31 11:07:58;;;;;;;2.03;1.60;;;15.60;90.90;;;;;;5079779;28;20213;-10
2024/01/31 11:10:27;;;;;;;2.80;1.60;;;15.70;90.90;;;;;;5079716;28;20187;-10
2024/01/31 11:12:57;;;;;;;2.27;1.60;;;15.70;90.90;;;;;;5079980;28;20179;-10
2024/01/31 11:15:36;;;;;;;1.67;1.50;;;15.70;90.90;;;;;;5078684;28;20663;-10
2024/01/31 11:18:05;;;;;;;2.97;1.70;;;15.70;91.20;;;;;;5061112;28;20187;-10
2024/01/31 11:20:46;;;;;;;2.30;1.40;;;15.70;90.80;;;;;;5060627;28;20400;-10
2024/01/31 11:23:23;;;;;;;2.60;1.70;;;15.70;90.80;;;;;;5078732;28;20167;-10
2024/01/31 11:25:50;;;;;;;2.07;1.80;;;15.70;90.80;;;;;;5078091;28;20242;-10
2024/01/31 11:28:18;;;;;;;2.07;1.60;;;15.70;90.80;;;;;;5077328;28;20247;-10
2024/01/31 11:30:51;;;;;;;2.10;1.73;;;15.70;90.80;;;;;;5076843;28;20203;-10
2024/01/31 11:33:21;;;;;;;3.20;1.47;;;15.70;90.80;;;;;;5077075;28;20205;-10
2024/01/31 11:35:47;;;;;;;2.57;1.60;;;15.70;90.70;;;;;;5060664;28;20168;-10
2024/01/31 11:38:17;;;;;;;2.50;1.47;;;15.70;90.70;;;;;;5077625;28;20163;-10
2024/01/31 11:40:45;;;;;;;3.10;1.70;;;15.70;90.70;;;;;;5060835;28;20596;-10
2024/01/31 11:43:11;;;;;;;2.53;1.60;;;15.70;90.70;;;;;;5078044;28;20172;-10
2024/01/31 11:45:38;;;;;;;3.03;1.40;;;15.70;90.70;;;;;;5060661;28;20172;-10
2024/01/31 11:48:05;;;;;;;1.90;1.50;;;15.70;90.70;;;;;;5076958;28;20541;-10
2024/01/31 11:50:33;;;;;;;1.87;1.40;;;15.70;90.70;;;;;;5059676;28;20206;-10
2024/01/31 11:53:03;;;;;;;2.40;1.60;;;15.70;90.60;;;;;;5077282;28;20297;-10
2024/01/31 11:55:36;;;;;;;1.67;1.47;;;15.70;90.70;;;;;;5058987;28;20617;-10
2024/01/31 11:58:04;;;;;;;1.60;1.50;;;15.70;90.60;;;;;;5058745;28;20287;-10
2024/01/31 12:00:31;;;;;;;4.67;1.70;;;15.70;90.70;;;;;;5059119;28;20172;-10
2024/01/31 12:03:00;;;;;;;2.37;1.60;;;15.70;90.60;;;;;;5077193;28;20274;-10
2024/01/31 12:05:29;;;;;;;2.50;1.60;;;15.70;90.60;;;;;;5058983;28;20813;-10
2024/01/31 12:07:59;;;;;;;1.93;1.50;;;15.70;90.70;;;;;;5077305;28;20297;-10
2024/01/31 12:10:28;;;;;;;1.93;1.60;;;15.70;90.70;;;;;;5058869;28;20199;-10
2024/01/31 12:12:57;;;;;;;2.20;1.60;;;15.70;90.60;;;;;;5076591;28;20175;-10
2024/01/31 12:15:23;;;;;;;1.70;1.40;;;15.70;90.90;;;;;;5059710;28;20464;-10
2024/01/31 12:17:49;;;;;;;1.60;1.50;;;15.70;90.60;;;;;;5059577;28;20194;-10
2024/01/31 12:20:18;;;;;;;1.47;1.33;;;15.70;90.60;;;;;;5058744;28;20180;-10
2024/01/31 12:22:45;;;;;;;2.80;1.57;;;15.70;90.60;;;;;;5059667;28;20184;-10
2024/01/31 12:25:11;;;;;;;1.70;1.53;;;15.70;90.60;;;;;;5076918;28;20168;-10
2024/01/31 12:27:39;;;;;;;1.97;1.60;;;15.70;90.50;;;;;;5058563;28;20174;-10
2024/01/31 12:30:06;;;;;;;1.40;1.30;;;15.80;90.50;;;;;;5075615;28;20202;-10
2024/01/31 12:32:31;;;;;;;1.60;1.40;;;15.70;90.50;;;;;;5075459;28;20819;-10
2024/01/31 12:34:57;;;;;;;1.80;1.50;;;15.80;90.50;;;;;;5059411;28;20171;-10
2024/01/31 12:37:23;;;;;;;4.70;4.30;;;15.70;90.50;;;;;;5059720;28;20465;-10
2024/01/31 12:39:49;;;;;;;2.10;1.77;;;15.70;90.50;;;;;;5076814;28;20174;-10
2024/01/31 12:42:16;;;;;;;1.97;1.60;;;15.80;90.50;;;;;;5076758;28;20222;-10
2024/01/31 12:44:42;;;;;;;3.00;1.80;;;15.80;90.70;;;;;;5059340;28;20583;-10
2024/01/31 12:47:08;;;;;;;2.13;1.80;;;15.80;90.60;;;;;;5058827;28;20262;-10
2024/01/31 12:49:39;;;;;;;1.70;1.60;;;15.80;90.70;;;;;;5076933;28;20259;-10
2024/01/31 12:52:05;;;;;;;3.53;2.00;;;15.80;90.70;;;;;;5076535;28;20170;-10
2024/01/31 12:54:32;;;;;;;1.87;1.70;;;15.80;90.60;;;;;;5076044;28;20190;-10
2024/01/31 12:56:57;;;;;;;4.37;4.03;;;15.80;90.70;;;;;;5058381;28;20700;-10
2024/01/31 12:59:25;;;;;;;1.60;1.50;;;15.80;90.70;;;;;;5076986;28;20180;-10
2024/01/31 13:01:51;;;;;;;2.00;1.60;;;15.80;90.70;;;;;;5059618;28;20152;-10